sensor_id;sensor_type;location;lat;lon;timestamp;pressure;altitude;pressure_sealevel;temperature;humidity
62038;BME280;47991;42.974;12.082;2023-02-18T00:01:41;99228.25;;;4.88;75.81
62038;BME280;47991;42.974;12.082;2023-02-18T00:04:08;99226.95;;;4.93;75.46
62038;BME280;47991;42.974;12.082;2023-02-18T00:06:35;99222.30;;;4.97;75.19
62038;BME280;47991;42.974;12.082;2023-02-18T00:09:03;99221.43;;;4.98;75.53
62038;BME280;47991;42.974;12.082;2023-02-18T00:11:33;99217.45;;;5.01;76.21
62038;BME280;47991;42.974;12.082;2023-02-18T00:14:03;99215.95;;;5.06;75.74
62038;BME280;47991;42.974;12.082;2023-02-18T00:16:31;99210.05;;;5.09;75.43
62038;BME280;47991;42.974;12.082;2023-02-18T00:19:01;99205.71;;;5.12;74.87
62038;BME280;47991;42.974;12.082;2023-02-18T00:21:29;99203.59;;;5.11;75.16
62038;BME280;47991;42.974;12.082;2023-02-18T00:23:56;99206.98;;;5.14;75.42
62038;BME280;47991;42.974;12.082;2023-02-18T00:26:24;99202.55;;;5.23;74.69
62038;BME280;47991;42.974;12.082;2023-02-18T00:28:52;99200.37;;;5.29;74.86
62038;BME280;47991;42.974;12.082;2023-02-18T00:31:31;99198.83;;;5.31;75.32
62038;BME280;47991;42.974;12.082;2023-02-18T00:34:01;99196.56;;;5.32;75.33
62038;BME280;47991;42.974;12.082;2023-02-18T00:36:29;99196.56;;;5.32;75.28
62038;BME280;47991;42.974;12.082;2023-02-18T00:38:58;99194.43;;;5.30;74.91
62038;BME280;47991;42.974;12.082;2023-02-18T00:41:27;99193.21;;;5.30;74.98
62038;BME280;47991;42.974;12.082;2023-02-18T00:43:55;99193.23;;;5.32;74.80
62038;BME280;47991;42.974;12.082;2023-02-18T00:46:23;99198.14;;;5.43;74.33
62038;BME280;47991;42.974;12.082;2023-02-18T00:48:53;99196.39;;;5.55;74.06
62038;BME280;47991;42.974;12.082;2023-02-18T00:51:21;99198.23;;;5.61;74.45
62038;BME280;47991;42.974;12.082;2023-02-18T00:53:48;99197.73;;;5.62;73.60
62038;BME280;47991;42.974;12.082;2023-02-18T00:56:16;99197.16;;;5.60;74.38
62038;BME280;47991;42.974;12.082;2023-02-18T00:58:43;99197.47;;;5.57;74.67
62038;BME280;47991;42.974;12.082;2023-02-18T01:01:11;99198.02;;;5.59;74.04
62038;BME280;47991;42.974;12.082;2023-02-18T01:03:41;99195.80;;;5.62;73.76
62038;BME280;47991;42.974;12.082;2023-02-18T01:06:10;99193.70;;;5.62;73.74
62038;BME280;47991;42.974;12.082;2023-02-18T01:08:38;99196.84;;;5.62;73.32
62038;BME280;47991;42.974;12.082;2023-02-18T01:11:08;99194.04;;;5.62;73.66
62038;BME280;47991;42.974;12.082;2023-02-18T01:13:36;99199.67;;;5.65;73.46
62038;BME280;47991;42.974;12.082;2023-02-18T01:16:03;99204.45;;;5.67;73.48
62038;BME280;47991;42.974;12.082;2023-02-18T01:18:31;99199.58;;;5.70;73.51
62038;BME280;47991;42.974;12.082;2023-02-18T01:20:58;99195.04;;;5.71;73.44
62038;BME280;47991;42.974;12.082;2023-02-18T01:23:26;99192.42;;;5.73;73.51
62038;BME280;47991;42.974;12.082;2023-02-18T01:25:53;99191.09;;;5.77;73.47
62038;BME280;47991;42.974;12.082;2023-02-18T01:28:21;99187.59;;;5.78;73.37
62038;BME280;47991;42.974;12.082;2023-02-18T01:30:52;99184.95;;;5.77;73.72
62038;BME280;47991;42.974;12.082;2023-02-18T01:33:20;99187.05;;;5.77;73.47
62038;BME280;47991;42.974;12.082;2023-02-18T01:35:48;99181.46;;;5.79;73.15
62038;BME280;47991;42.974;12.082;2023-02-18T01:38:15;99179.93;;;5.82;73.65
62038;BME280;47991;42.974;12.082;2023-02-18T01:40:49;99178.01;;;5.84;73.58
62038;BME280;47991;42.974;12.082;2023-02-18T01:43:21;99169.77;;;5.84;73.15
62038;BME280;47991;42.974;12.082;2023-02-18T01:46:11;99162.52;;;5.80;73.43
62038;BME280;47991;42.974;12.082;2023-02-18T01:54:01;99155.45;;;5.76;73.65
62038;BME280;47991;42.974;12.082;2023-02-18T01:56:38;99156.23;;;5.70;73.41
62038;BME280;47991;42.974;12.082;2023-02-18T01:59:11;99154.24;;;5.66;73.44
62038;BME280;47991;42.974;12.082;2023-02-18T02:01:43;99153.38;;;5.66;73.55
62038;BME280;47991;42.974;12.082;2023-02-18T02:04:11;99149.73;;;5.68;73.52
62038;BME280;47991;42.974;12.082;2023-02-18T02:06:38;99148.55;;;5.71;73.63
62038;BME280;47991;42.974;12.082;2023-02-18T02:09:08;99149.99;;;5.75;73.93
62038;BME280;47991;42.974;12.082;2023-02-18T02:51:04;99134.21;;;5.50;75.56
62038;BME280;47991;42.974;12.082;2023-02-18T02:53:35;99135.60;;;5.49;74.99
62038;BME280;47991;42.974;12.082;2023-02-18T02:56:03;99137.87;;;5.47;74.91
62038;BME280;47991;42.974;12.082;2023-02-18T02:58:31;99134.73;;;5.49;74.68
62038;BME280;47991;42.974;12.082;2023-02-18T03:09:33;99122.77;;;5.46;75.20
62038;BME280;47991;42.974;12.082;2023-02-18T03:12:13;99124.05;;;5.50;75.35
62038;BME280;47991;42.974;12.082;2023-02-18T03:14:49;99125.98;;;5.51;75.57
62038;BME280;47991;42.974;12.082;2023-02-18T03:17:36;99130.02;;;5.50;76.29
62038;BME280;47991;42.974;12.082;2023-02-18T03:22:55;99131.67;;;5.43;75.54
62038;BME280;47991;42.974;12.082;2023-02-18T03:25:25;99131.52;;;5.45;75.12
62038;BME280;47991;42.974;12.082;2023-02-18T03:27:55;99131.54;;;5.46;75.36
62038;BME280;47991;42.974;12.082;2023-02-18T03:30:52;99129.56;;;5.42;75.75
62038;BME280;47991;42.974;12.082;2023-02-18T03:33:28;99126.80;;;5.33;76.58
62038;BME280;47991;42.974;12.082;2023-02-18T03:35:56;99129.25;;;5.34;76.01
62038;BME280;47991;42.974;12.082;2023-02-18T03:38:25;99129.46;;;5.36;75.50
62038;BME280;47991;42.974;12.082;2023-02-18T03:40:56;99124.45;;;5.29;77.89
62038;BME280;47991;42.974;12.082;2023-02-18T03:43:23;99121.95;;;5.25;76.73
62038;BME280;47991;42.974;12.082;2023-02-18T03:45:51;99122.38;;;5.30;76.28
62038;BME280;47991;42.974;12.082;2023-02-18T03:48:19;99115.45;;;5.37;75.84
62038;BME280;47991;42.974;12.082;2023-02-18T03:50:46;99119.23;;;5.44;75.47
62038;BME280;47991;42.974;12.082;2023-02-18T03:53:13;99118.61;;;5.49;75.10
62038;BME280;47991;42.974;12.082;2023-02-18T03:55:40;99114.98;;;5.54;75.28
62038;BME280;47991;42.974;12.082;2023-02-18T03:58:08;99112.39;;;5.57;75.95
62038;BME280;47991;42.974;12.082;2023-02-18T04:00:35;99109.77;;;5.56;75.58
62038;BME280;47991;42.974;12.082;2023-02-18T04:03:02;99118.02;;;5.58;75.02
62038;BME280;47991;42.974;12.082;2023-02-18T04:05:29;99113.79;;;5.57;75.45
62038;BME280;47991;42.974;12.082;2023-02-18T04:07:56;99114.72;;;5.47;77.08
62038;BME280;47991;42.974;12.082;2023-02-18T04:10:23;99111.38;;;5.46;76.26
62038;BME280;47991;42.974;12.082;2023-02-18T04:12:50;99114.48;;;5.44;76.32
62038;BME280;47991;42.974;12.082;2023-02-18T04:15:17;99113.13;;;5.46;76.70
62038;BME280;47991;42.974;12.082;2023-02-18T04:17:44;99110.48;;;5.45;76.89
62038;BME280;47991;42.974;12.082;2023-02-18T04:20:11;99111.23;;;5.49;75.75
62038;BME280;47991;42.974;12.082;2023-02-18T04:22:39;99112.52;;;5.53;75.75
62038;BME280;47991;42.974;12.082;2023-02-18T04:25:06;99107.95;;;5.54;75.70
62038;BME280;47991;42.974;12.082;2023-02-18T04:27:33;99104.84;;;5.57;75.66
62038;BME280;47991;42.974;12.082;2023-02-18T04:30:01;99102.43;;;5.60;75.65
62038;BME280;47991;42.974;12.082;2023-02-18T04:32:28;99100.92;;;5.66;75.51
62038;BME280;47991;42.974;12.082;2023-02-18T04:34:55;99099.36;;;5.67;75.22
62038;BME280;47991;42.974;12.082;2023-02-18T04:37:22;99098.80;;;5.64;75.99
62038;BME280;47991;42.974;12.082;2023-02-18T04:39:49;99100.38;;;5.65;75.63
62038;BME280;47991;42.974;12.082;2023-02-18T04:42:16;99100.21;;;5.66;75.74
62038;BME280;47991;42.974;12.082;2023-02-18T04:44:43;99101.15;;;5.56;76.75
62038;BME280;47991;42.974;12.082;2023-02-18T04:47:10;99109.95;;;5.45;77.09
62038;BME280;47991;42.974;12.082;2023-02-18T04:49:38;99111.60;;;5.38;76.85
62038;BME280;47991;42.974;12.082;2023-02-18T04:52:05;99113.80;;;5.32;77.31
62038;BME280;47991;42.974;12.082;2023-02-18T04:54:32;99115.66;;;5.27;77.44
62038;BME280;47991;42.974;12.082;2023-02-18T04:56:59;99109.16;;;5.26;76.99
62038;BME280;47991;42.974;12.082;2023-02-18T04:59:26;99109.60;;;5.32;76.69
62038;BME280;47991;42.974;12.082;2023-02-18T05:01:52;99115.40;;;5.33;77.35
62038;BME280;47991;42.974;12.082;2023-02-18T05:04:19;99117.17;;;5.35;77.21
62038;BME280;47991;42.974;12.082;2023-02-18T05:06:46;99121.42;;;5.38;77.15
62038;BME280;47991;42.974;12.082;2023-02-18T05:09:13;99118.30;;;5.40;76.92
62038;BME280;47991;42.974;12.082;2023-02-18T05:11:41;99118.00;;;5.43;76.58
62038;BME280;47991;42.974;12.082;2023-02-18T05:14:08;99119.45;;;5.48;76.94
62038;BME280;47991;42.974;12.082;2023-02-18T05:16:35;99118.73;;;5.46;77.89
62038;BME280;47991;42.974;12.082;2023-02-18T05:19:02;99117.70;;;5.48;77.24
62038;BME280;47991;42.974;12.082;2023-02-18T05:21:29;99121.96;;;5.51;76.46
62038;BME280;47991;42.974;12.082;2023-02-18T05:23:56;99116.71;;;5.53;76.69
62038;BME280;47991;42.974;12.082;2023-02-18T05:26:23;99120.74;;;5.52;76.57
62038;BME280;47991;42.974;12.082;2023-02-18T05:28:50;99121.41;;;5.50;76.97
62038;BME280;47991;42.974;12.082;2023-02-18T05:31:17;99122.95;;;5.47;77.13
62038;BME280;47991;42.974;12.082;2023-02-18T05:33:43;99120.07;;;5.42;77.49
62038;BME280;47991;42.974;12.082;2023-02-18T05:36:10;99117.66;;;5.44;77.11
62038;BME280;47991;42.974;12.082;2023-02-18T05:38:37;99115.76;;;5.46;77.39
62038;BME280;47991;42.974;12.082;2023-02-18T05:41:04;99118.33;;;5.42;77.79
62038;BME280;47991;42.974;12.082;2023-02-18T05:43:31;99117.44;;;5.40;77.82
62038;BME280;47991;42.974;12.082;2023-02-18T05:46:18;99115.30;;;5.39;77.50
62038;BME280;47991;42.974;12.082;2023-02-18T05:48:45;99114.85;;;5.32;79.93
62038;BME280;47991;42.974;12.082;2023-02-18T05:51:12;99116.38;;;5.29;78.95
62038;BME280;47991;42.974;12.082;2023-02-18T05:53:39;99114.66;;;5.31;78.45
62038;BME280;47991;42.974;12.082;2023-02-18T05:56:06;99114.88;;;5.34;78.08
62038;BME280;47991;42.974;12.082;2023-02-18T05:58:33;99115.63;;;5.37;78.06
62038;BME280;47991;42.974;12.082;2023-02-18T06:01:04;99116.88;;;5.39;77.60
62038;BME280;47991;42.974;12.082;2023-02-18T06:03:33;99115.33;;;5.40;77.71
62038;BME280;47991;42.974;12.082;2023-02-18T06:06:00;99113.94;;;5.41;77.62
62038;BME280;47991;42.974;12.082;2023-02-18T06:08:27;99112.73;;;5.44;77.60
62038;BME280;47991;42.974;12.082;2023-02-18T06:10:54;99114.33;;;5.45;77.26
62038;BME280;47991;42.974;12.082;2023-02-18T06:13:21;99114.33;;;5.45;77.21
62038;BME280;47991;42.974;12.082;2023-02-18T06:15:51;99120.80;;;5.43;77.68
62038;BME280;47991;42.974;12.082;2023-02-18T06:18:19;99123.05;;;5.41;77.51
62038;BME280;47991;42.974;12.082;2023-02-18T06:20:47;99124.01;;;5.35;78.03
62038;BME280;47991;42.974;12.082;2023-02-18T06:23:14;99125.05;;;5.34;78.13
62038;BME280;47991;42.974;12.082;2023-02-18T06:25:42;99128.79;;;5.38;77.70
62038;BME280;47991;42.974;12.082;2023-02-18T06:28:09;99132.22;;;5.44;77.38
62038;BME280;47991;42.974;12.082;2023-02-18T06:30:35;99130.95;;;5.42;77.62
62038;BME280;47991;42.974;12.082;2023-02-18T06:33:02;99133.94;;;5.42;77.45
62038;BME280;47991;42.974;12.082;2023-02-18T06:35:30;99136.98;;;5.47;77.53
62038;BME280;47991;42.974;12.082;2023-02-18T06:37:57;99135.82;;;5.51;77.61
62038;BME280;47991;42.974;12.082;2023-02-18T06:40:24;99134.23;;;5.51;77.21
62038;BME280;47991;42.974;12.082;2023-02-18T06:42:51;99135.58;;;5.46;78.93
62038;BME280;47991;42.974;12.082;2023-02-18T06:45:18;99131.64;;;5.40;79.72
62038;BME280;47991;42.974;12.082;2023-02-18T06:47:44;99130.48;;;5.33;80.32
62038;BME280;47991;42.974;12.082;2023-02-18T06:50:12;99134.85;;;5.32;79.74
62038;BME280;47991;42.974;12.082;2023-02-18T06:52:39;99137.92;;;5.39;79.46
62038;BME280;47991;42.974;12.082;2023-02-18T06:55:06;99135.95;;;5.48;78.55
62038;BME280;47991;42.974;12.082;2023-02-18T06:57:34;99134.79;;;5.53;78.76
62038;BME280;47991;42.974;12.082;2023-02-18T07:00:03;99137.85;;;5.58;78.53
62038;BME280;47991;42.974;12.082;2023-02-18T07:02:31;99138.08;;;5.64;77.95
62038;BME280;47991;42.974;12.082;2023-02-18T07:04:58;99141.33;;;5.71;77.63
62038;BME280;47991;42.974;12.082;2023-02-18T07:07:25;99136.33;;;5.76;77.74
62038;BME280;47991;42.974;12.082;2023-02-18T07:09:52;99140.54;;;5.77;77.95
62038;BME280;47991;42.974;12.082;2023-02-18T07:12:19;99139.30;;;5.76;77.79
62038;BME280;47991;42.974;12.082;2023-02-18T07:14:46;99143.21;;;5.80;77.51
62038;BME280;47991;42.974;12.082;2023-02-18T07:17:12;99146.96;;;5.85;77.96
62038;BME280;47991;42.974;12.082;2023-02-18T07:19:40;99147.99;;;5.84;77.76
62038;BME280;47991;42.974;12.082;2023-02-18T07:22:07;99152.28;;;5.76;79.38
62038;BME280;47991;42.974;12.082;2023-02-18T07:24:34;99153.86;;;5.62;80.91
62038;BME280;47991;42.974;12.082;2023-02-18T07:27:01;99162.63;;;5.61;79.37
62038;BME280;47991;42.974;12.082;2023-02-18T07:29:28;99160.89;;;5.63;78.91
62038;BME280;47991;42.974;12.082;2023-02-18T07:31:55;99161.80;;;5.66;78.28
62038;BME280;47991;42.974;12.082;2023-02-18T07:34:22;99161.30;;;5.68;78.13
62038;BME280;47991;42.974;12.082;2023-02-18T07:36:49;99165.86;;;5.68;78.07
62038;BME280;47991;42.974;12.082;2023-02-18T07:39:16;99161.16;;;5.70;78.89
62038;BME280;47991;42.974;12.082;2023-02-18T07:41:47;99167.33;;;5.72;78.43
62038;BME280;47991;42.974;12.082;2023-02-18T07:44:15;99172.76;;;5.71;78.95
62038;BME280;47991;42.974;12.082;2023-02-18T07:46:42;99174.54;;;5.73;78.37
62038;BME280;47991;42.974;12.082;2023-02-18T07:49:09;99176.71;;;5.79;78.20
62038;BME280;47991;42.974;12.082;2023-02-18T07:51:36;99176.98;;;5.86;77.71
62038;BME280;47991;42.974;12.082;2023-02-18T07:54:04;99175.89;;;5.94;77.71
62038;BME280;47991;42.974;12.082;2023-02-18T07:56:31;99178.30;;;6.04;77.48
62038;BME280;47991;42.974;12.082;2023-02-18T07:58:58;99177.64;;;6.07;77.43
62038;BME280;47991;42.974;12.082;2023-02-18T08:01:25;99177.11;;;6.07;76.97
62038;BME280;47991;42.974;12.082;2023-02-18T08:03:52;99173.80;;;6.08;77.96
62038;BME280;47991;42.974;12.082;2023-02-18T08:06:27;99170.46;;;6.08;77.88
62038;BME280;47991;42.974;12.082;2023-02-18T08:08:56;99174.52;;;6.11;77.49
62038;BME280;47991;42.974;12.082;2023-02-18T08:11:23;99172.51;;;6.18;77.60
62038;BME280;47991;42.974;12.082;2023-02-18T08:13:50;99170.05;;;6.17;77.41
62038;BME280;47991;42.974;12.082;2023-02-18T08:16:19;99173.91;;;6.19;77.29
62038;BME280;47991;42.974;12.082;2023-02-18T08:18:47;99178.19;;;6.23;77.28
62038;BME280;47991;42.974;12.082;2023-02-18T08:21:17;99178.04;;;6.26;77.13
62038;BME280;47991;42.974;12.082;2023-02-18T08:23:45;99176.98;;;6.26;77.79
62038;BME280;47991;42.974;12.082;2023-02-18T08:26:12;99177.49;;;6.24;78.29
62038;BME280;47991;42.974;12.082;2023-02-18T08:28:44;99174.34;;;6.25;77.94
62038;BME280;47991;42.974;12.082;2023-02-18T08:31:32;99174.37;;;6.26;78.10
62038;BME280;47991;42.974;12.082;2023-02-18T08:34:00;99174.99;;;6.21;78.80
62038;BME280;47991;42.974;12.082;2023-02-18T08:36:29;99175.39;;;6.26;77.91
62038;BME280;47991;42.974;12.082;2023-02-18T08:38:57;99174.77;;;6.32;77.63
62038;BME280;47991;42.974;12.082;2023-02-18T08:41:24;99177.96;;;6.35;77.48
62038;BME280;47991;42.974;12.082;2023-02-18T08:43:51;99180.77;;;6.33;77.13
62038;BME280;47991;42.974;12.082;2023-02-18T08:46:17;99181.27;;;6.33;77.62
62038;BME280;47991;42.974;12.082;2023-02-18T08:48:44;99182.02;;;6.36;77.43
62038;BME280;47991;42.974;12.082;2023-02-18T08:51:14;99181.55;;;6.41;77.10
62038;BME280;47991;42.974;12.082;2023-02-18T08:53:42;99178.46;;;6.48;76.87
62038;BME280;47991;42.974;12.082;2023-02-18T08:56:09;99182.30;;;6.46;77.03
62038;BME280;47991;42.974;12.082;2023-02-18T08:58:36;99180.41;;;6.50;76.92
62038;BME280;47991;42.974;12.082;2023-02-18T09:01:05;99182.09;;;6.60;76.53
62038;BME280;47991;42.974;12.082;2023-02-18T09:03:33;99180.21;;;6.65;76.07
62038;BME280;47991;42.974;12.082;2023-02-18T09:06:00;99187.67;;;6.72;76.07
62038;BME280;47991;42.974;12.082;2023-02-18T09:08:28;99189.83;;;6.78;75.81
62038;BME280;47991;42.974;12.082;2023-02-18T09:10:57;99188.48;;;6.83;76.01
62038;BME280;47991;42.974;12.082;2023-02-18T09:13:25;99191.16;;;6.88;75.60
62038;BME280;47991;42.974;12.082;2023-02-18T09:16:04;99194.35;;;6.90;75.65
62038;BME280;47991;42.974;12.082;2023-02-18T09:18:32;99189.22;;;6.86;76.04
62038;BME280;47991;42.974;12.082;2023-02-18T09:21:03;99190.77;;;6.84;75.74
62038;BME280;47991;42.974;12.082;2023-02-18T09:23:31;99193.27;;;6.87;75.74
62038;BME280;47991;42.974;12.082;2023-02-18T09:25:59;99191.84;;;6.86;75.70
62038;BME280;47991;42.974;12.082;2023-02-18T09:28:26;99186.25;;;6.88;75.70
62038;BME280;47991;42.974;12.082;2023-02-18T09:30:53;99187.46;;;6.87;76.17
62038;BME280;47991;42.974;12.082;2023-02-18T09:33:20;99186.55;;;6.85;76.39
62038;BME280;47991;42.974;12.082;2023-02-18T09:35:47;99187.79;;;6.84;76.27
62038;BME280;47991;42.974;12.082;2023-02-18T09:38:16;99187.00;;;6.93;76.17
62038;BME280;47991;42.974;12.082;2023-02-18T09:40:47;99184.82;;;7.07;75.94
62038;BME280;47991;42.974;12.082;2023-02-18T09:43:24;99185.63;;;7.18;75.57
62038;BME280;47991;42.974;12.082;2023-02-18T09:45:53;99185.54;;;7.30;75.44
62038;BME280;47991;42.974;12.082;2023-02-18T09:48:29;99186.10;;;7.34;75.03
62038;BME280;47991;42.974;12.082;2023-02-18T09:50:57;99185.96;;;7.40;75.17
62038;BME280;47991;42.974;12.082;2023-02-18T09:53:25;99184.11;;;7.51;74.87
62038;BME280;47991;42.974;12.082;2023-02-18T09:55:54;99184.45;;;7.51;74.42
62038;BME280;47991;42.974;12.082;2023-02-18T09:58:29;99180.23;;;7.49;74.81
62038;BME280;47991;42.974;12.082;2023-02-18T10:01:05;99177.39;;;7.49;74.86
62038;BME280;47991;42.974;12.082;2023-02-18T10:03:37;99175.16;;;7.58;74.10
62038;BME280;47991;42.974;12.082;2023-02-18T10:06:21;99178.38;;;7.62;74.00
62038;BME280;47991;42.974;12.082;2023-02-18T10:08:51;99177.90;;;7.75;74.26
62038;BME280;47991;42.974;12.082;2023-02-18T10:11:28;99177.27;;;7.86;73.41
62038;BME280;47991;42.974;12.082;2023-02-18T10:13:58;99175.19;;;7.90;73.31
62038;BME280;47991;42.974;12.082;2023-02-18T10:16:26;99172.40;;;8.00;72.89
62038;BME280;47991;42.974;12.082;2023-02-18T10:18:56;99178.45;;;8.13;73.30
62038;BME280;47991;42.974;12.082;2023-02-18T10:21:26;99172.00;;;8.33;72.89
62038;BME280;47991;42.974;12.082;2023-02-18T10:26:51;99166.82;;;8.58;71.14
62038;BME280;47991;42.974;12.082;2023-02-18T10:29:19;99162.61;;;8.72;70.81
62038;BME280;47991;42.974;12.082;2023-02-18T10:31:54;99157.69;;;8.81;70.34
62038;BME280;47991;42.974;12.082;2023-02-18T10:34:42;99155.77;;;9.03;71.37
62038;BME280;47991;42.974;12.082;2023-02-18T10:38:00;99151.70;;;9.31;70.16
62038;BME280;47991;42.974;12.082;2023-02-18T10:50:52;99140.04;;;10.01;68.47
62038;BME280;47991;42.974;12.082;2023-02-18T10:53:52;99134.50;;;10.14;67.37
62038;BME280;47991;42.974;12.082;2023-02-18T10:56:36;99129.33;;;10.25;68.05
62038;BME280;47991;42.974;12.082;2023-02-18T10:59:12;99127.52;;;10.32;66.29
62038;BME280;47991;42.974;12.082;2023-02-18T11:01:54;99125.78;;;10.30;66.05
62038;BME280;47991;42.974;12.082;2023-02-18T11:04:27;99123.31;;;10.24;66.59
62038;BME280;47991;42.974;12.082;2023-02-18T11:06:54;99126.83;;;10.32;67.75
62038;BME280;47991;42.974;12.082;2023-02-18T11:12:01;99122.21;;;10.66;67.71
62038;BME280;47991;42.974;12.082;2023-02-18T11:14:46;99123.21;;;10.75;66.31
62038;BME280;47991;42.974;12.082;2023-02-18T11:17:34;99117.63;;;10.65;66.14
62038;BME280;47991;42.974;12.082;2023-02-18T11:20:26;99105.65;;;10.57;65.84
62038;BME280;47991;42.974;12.082;2023-02-18T11:23:15;99104.92;;;10.60;66.12
62038;BME280;47991;42.974;12.082;2023-02-18T11:25:59;99097.20;;;10.50;65.98
62038;BME280;47991;42.974;12.082;2023-02-18T11:30:57;99090.76;;;10.62;66.22
62038;BME280;47991;42.974;12.082;2023-02-18T11:33:33;99088.07;;;10.68;65.56
62038;BME280;47991;42.974;12.082;2023-02-18T11:38:46;99083.03;;;10.78;65.32
62038;BME280;47991;42.974;12.082;2023-02-18T11:41:18;99079.12;;;11.01;66.18
62038;BME280;47991;42.974;12.082;2023-02-18T11:43:51;99074.72;;;11.18;65.21
62038;BME280;47991;42.974;12.082;2023-02-18T11:46:22;99068.58;;;11.31;62.69
62038;BME280;47991;42.974;12.082;2023-02-18T11:48:50;99068.33;;;11.37;63.94
62038;BME280;47991;42.974;12.082;2023-02-18T11:51:26;99069.16;;;11.40;64.42
62038;BME280;47991;42.974;12.082;2023-02-18T11:54:00;99066.69;;;11.41;64.22
62038;BME280;47991;42.974;12.082;2023-02-18T11:56:35;99061.17;;;11.27;63.55
62038;BME280;47991;42.974;12.082;2023-02-18T11:59:03;99056.16;;;11.32;63.26
62038;BME280;47991;42.974;12.082;2023-02-18T12:01:48;99052.82;;;11.31;63.19
62038;BME280;47991;42.974;12.082;2023-02-18T12:04:18;99050.66;;;11.33;63.05
62038;BME280;47991;42.974;12.082;2023-02-18T12:09:40;99045.09;;;11.56;62.73
62038;BME280;47991;42.974;12.082;2023-02-18T12:12:19;99041.11;;;11.63;62.99
62038;BME280;47991;42.974;12.082;2023-02-18T12:14:53;99040.41;;;11.62;61.71
62038;BME280;47991;42.974;12.082;2023-02-18T12:17:56;99033.02;;;11.57;62.89
62038;BME280;47991;42.974;12.082;2023-02-18T12:31:24;99022.38;;;11.30;61.32
62038;BME280;47991;42.974;12.082;2023-02-18T13:01:49;98998.02;;;11.53;60.26
62038;BME280;47991;42.974;12.082;2023-02-18T13:04:27;98998.97;;;11.47;60.99
62038;BME280;47991;42.974;12.082;2023-02-18T13:07:15;98998.48;;;11.44;60.86
62038;BME280;47991;42.974;12.082;2023-02-18T13:13:39;98985.48;;;11.36;60.80
62038;BME280;47991;42.974;12.082;2023-02-18T13:16:14;98982.69;;;11.32;60.70
62038;BME280;47991;42.974;12.082;2023-02-18T13:21:35;98977.73;;;11.31;60.95
62038;BME280;47991;42.974;12.082;2023-02-18T13:24:08;98983.07;;;11.30;60.93
62038;BME280;47991;42.974;12.082;2023-02-18T13:26:38;98983.11;;;11.27;60.69
62038;BME280;47991;42.974;12.082;2023-02-18T13:29:23;98980.64;;;11.27;61.22
62038;BME280;47991;42.974;12.082;2023-02-18T13:31:58;98976.55;;;11.28;61.31
62038;BME280;47991;42.974;12.082;2023-02-18T13:39:52;98978.12;;;10.96;62.86
62038;BME280;47991;42.974;12.082;2023-02-18T13:47:45;98974.23;;;10.96;63.79
62038;BME280;47991;42.974;12.082;2023-02-18T13:52:49;98968.98;;;10.90;64.17
62038;BME280;47991;42.974;12.082;2023-02-18T13:55:34;98962.76;;;10.94;64.16
62038;BME280;47991;42.974;12.082;2023-02-18T13:58:13;98956.71;;;10.97;64.12
62038;BME280;47991;42.974;12.082;2023-02-18T14:00:49;98953.33;;;10.99;63.96
62038;BME280;47991;42.974;12.082;2023-02-18T14:04:31;98954.37;;;11.00;63.65
62038;BME280;47991;42.974;12.082;2023-02-18T14:09:44;98949.70;;;10.91;63.71
62038;BME280;47991;42.974;12.082;2023-02-18T14:11:56;98949.95;;;10.99;63.97
62038;BME280;47991;42.974;12.082;2023-02-18T14:20:21;98945.23;;;11.11;64.34
62038;BME280;47991;42.974;12.082;2023-02-18T14:22:50;98942.36;;;11.14;64.22
62038;BME280;47991;42.974;12.082;2023-02-18T14:27:52;98937.92;;;11.15;63.85
62038;BME280;47991;42.974;12.082;2023-02-18T14:30:37;98938.10;;;11.15;63.64
62038;BME280;47991;42.974;12.082;2023-02-18T14:33:11;98934.70;;;11.18;63.93
62038;BME280;47991;42.974;12.082;2023-02-18T14:38:49;98931.03;;;11.15;63.65
62038;BME280;47991;42.974;12.082;2023-02-18T14:41:21;98927.36;;;11.12;63.80
62038;BME280;47991;42.974;12.082;2023-02-18T14:44:10;98929.65;;;11.11;64.10
62038;BME280;47991;42.974;12.082;2023-02-18T14:47:15;98928.05;;;11.12;63.68
62038;BME280;47991;42.974;12.082;2023-02-18T14:49:48;98928.58;;;11.12;64.17
62038;BME280;47991;42.974;12.082;2023-02-18T14:55:10;98925.35;;;11.01;63.70
62038;BME280;47991;42.974;12.082;2023-02-18T14:57:50;98921.30;;;10.99;64.06
62038;BME280;47991;42.974;12.082;2023-02-18T15:00:29;98926.48;;;10.93;63.76
62038;BME280;47991;42.974;12.082;2023-02-18T15:03:00;98927.80;;;10.88;63.96
62038;BME280;47991;42.974;12.082;2023-02-18T15:05:30;98925.73;;;10.83;64.12
62038;BME280;47991;42.974;12.082;2023-02-18T15:08:35;98927.70;;;10.81;64.28
62038;BME280;47991;42.974;12.082;2023-02-18T15:11:03;98927.55;;;10.77;64.67
62038;BME280;47991;42.974;12.082;2023-02-18T15:13:33;98927.23;;;10.74;64.49
62038;BME280;47991;42.974;12.082;2023-02-18T15:16:06;98927.96;;;10.72;64.49
62038;BME280;47991;42.974;12.082;2023-02-18T15:18:41;98922.00;;;10.67;64.76
62038;BME280;47991;42.974;12.082;2023-02-18T15:21:20;98921.30;;;10.66;64.57
62038;BME280;47991;42.974;12.082;2023-02-18T15:23:48;98925.04;;;10.64;65.11
62038;BME280;47991;42.974;12.082;2023-02-18T15:26:15;98925.59;;;10.62;65.05
62038;BME280;47991;42.974;12.082;2023-02-18T15:29:03;98920.48;;;10.60;65.58
62038;BME280;47991;42.974;12.082;2023-02-18T15:31:36;98924.11;;;10.50;66.50
62038;BME280;47991;42.974;12.082;2023-02-18T15:34:37;98922.16;;;10.49;65.95
62038;BME280;47991;42.974;12.082;2023-02-18T15:37:07;98919.73;;;10.46;66.30
62038;BME280;47991;42.974;12.082;2023-02-18T15:39:36;98918.83;;;10.47;65.93
62038;BME280;47991;42.974;12.082;2023-02-18T15:42:18;98922.20;;;10.46;65.81
62038;BME280;47991;42.974;12.082;2023-02-18T15:44:52;98925.46;;;10.37;65.83
62038;BME280;47991;42.974;12.082;2023-02-18T15:47:21;98920.20;;;10.33;65.89
62038;BME280;47991;42.974;12.082;2023-02-18T15:49:52;98915.61;;;10.29;65.97
62038;BME280;47991;42.974;12.082;2023-02-18T15:52:27;98919.85;;;10.28;65.78
62038;BME280;47991;42.974;12.082;2023-02-18T15:54:59;98920.20;;;10.29;66.28